Time;durP1;ratioP1;P1;durP2;ratioP2;P2;SDS_P1;SDS_P2;PMS_P1;PMS_P2;Temp;Humidity;BMP_temperature;BMP_pressure;BME280_temperature;BME280_humidity;BME280_pressure;Samples;Min_cycle;Max_cycle;Signal;HPM_P1;HPM_P2
2022/07/23 00:00:43;;;;;;;3.45;1.80;;;;;;;21.84;64.33;101118.97;4968925;28;102430;-54
2022/07/23 00:03:10;;;;;;;2.65;1.90;;;;;;;21.84;64.12;101117.00;4979043;28;102102;-54
2022/07/23 00:05:36;;;;;;;2.05;1.85;;;;;;;21.86;64.31;101129.72;4975067;28;103928;-54
2022/07/23 00:08:05;;;;;;;2.10;1.88;;;;;;;21.84;64.34;101119.75;4978343;28;102110;-54
2022/07/23 00:10:32;;;;;;;3.00;1.80;;;;;;;21.86;64.28;101124.19;4978076;28;103433;-54
2022/07/23 00:12:59;;;;;;;2.17;1.70;;;;;;;21.83;64.17;101115.38;4979020;28;102125;-54
2022/07/23 00:15:27;;;;;;;2.77;1.90;;;;;;;21.84;64.50;101117.00;4979029;28;104164;-54
2022/07/23 00:17:53;;;;;;;2.53;1.80;;;;;;;21.83;64.29;101118.16;4976967;28;103478;-54
2022/07/23 00:20:26;;;;;;;2.00;1.80;;;;;;;21.85;64.37;101123.34;4979236;28;101810;-54
2022/07/23 00:22:54;;;;;;;2.35;1.90;;;;;;;21.84;63.68;101117.00;4979940;28;102158;-54
2022/07/23 00:25:23;;;;;;;3.92;1.90;;;;;;;21.84;64.09;101117.00;4978555;28;103932;-54
2022/07/23 00:27:50;;;;;;;2.35;1.95;;;;;;;21.84;64.21;101117.00;4977355;28;102343;-54
2022/07/23 00:30:17;;;;;;;2.53;1.83;;;;;;;21.83;64.22;101120.94;4977917;28;102132;-54
2022/07/23 00:32:48;;;;;;;2.95;1.88;;;;;;;21.83;64.15;101114.56;4979820;28;102038;-54
2022/07/23 00:35:15;;;;;;;2.00;1.77;;;;;;;21.83;64.26;101114.56;4978612;28;103977;-54
2022/07/23 00:37:42;;;;;;;2.00;1.80;;;;;;;21.84;64.30;101114.22;4974301;28;102386;-54
2022/07/23 00:40:11;;;;;;;1.92;1.73;;;;;;;21.84;64.38;101111.47;4975724;28;102036;-54
2022/07/23 00:42:39;;;;;;;3.70;1.80;;;;;;;21.83;64.58;101115.38;4977346;28;102406;-54
2022/07/23 00:45:07;;;;;;;2.45;2.05;;;;;;;21.83;64.16;101109.03;4976940;28;103899;-54
2022/07/23 00:47:36;;;;;;;3.97;1.85;;;;;;;21.83;64.36;101111.81;4976737;28;102011;-54
2022/07/23 00:50:03;;;;;;;3.67;1.70;;;;;;;21.83;64.38;101109.03;4976833;28;102490;-54
2022/07/23 00:52:31;;;;;;;3.17;1.70;;;;;;;21.83;64.17;101106.25;4967713;28;102157;-54
2022/07/23 00:54:58;;;;;;;3.20;1.73;;;;;;;21.83;64.32;101114.56;4974937;28;104356;-55
2022/07/23 00:57:25;;;;;;;2.08;1.52;;;;;;;21.83;64.29;101112.63;4976918;28;101987;-54
2022/07/23 00:59:53;;;;;;;2.00;1.63;;;;;;;21.82;64.27;101110.19;4977334;28;102476;-54
2022/07/23 01:02:19;;;;;;;2.40;1.93;;;;;;;21.82;64.33;101111.00;4977493;28;102195;-54
2022/07/23 01:04:47;;;;;;;3.25;1.73;;;;;;;21.81;64.29;101112.13;4975560;28;104075;-54
2022/07/23 01:07:13;;;;;;;1.50;1.38;;;;;;;21.82;64.28;101113.78;4976683;28;102567;-54
2022/07/23 01:09:41;;;;;;;1.60;1.50;;;;;;;21.81;64.11;101117.66;4977170;28;102263;-54
2022/07/23 01:12:08;;;;;;;2.83;1.70;;;;;;;21.82;64.16;101113.78;4977828;28;102150;-54
2022/07/23 01:14:35;;;;;;;1.70;1.60;;;;;;;21.82;64.34;101113.78;4974371;28;103921;-55
2022/07/23 01:17:04;;;;;;;2.58;1.63;;;;;;;21.82;64.50;101119.31;4976429;28;102075;-54
2022/07/23 01:19:31;;;;;;;1.77;1.67;;;;;;;21.81;64.28;101116.88;4973095;28;102876;-54
2022/07/23 01:22:01;;;;;;;28.00;2.40;;;;;;;21.81;64.34;101120.44;4976975;28;102296;-54
2022/07/23 01:24:29;;;;;;;3.28;1.70;;;;;;;21.81;64.44;101117.66;4976547;28;104112;-55
2022/07/23 01:26:56;;;;;;;3.25;1.60;;;;;;;21.81;64.45;101112.13;4977378;28;102158;-54
2022/07/23 01:29:22;;;;;;;2.17;1.90;;;;;;;21.80;64.00;101121.59;4975449;28;102095;-54
2022/07/23 01:31:52;;;;;;;4.00;1.90;;;;;;;21.80;64.27;101109.72;4977742;28;102169;-54
2022/07/23 01:34:19;;;;;;;1.70;1.60;;;;;;;21.80;64.71;101110.50;4975312;28;103872;-54
2022/07/23 01:36:46;;;;;;;2.63;1.67;;;;;;;21.79;64.44;101117.22;4975299;28;102240;-54
2022/07/23 01:39:13;;;;;;;2.13;1.80;;;;;;;21.79;64.20;101117.22;4975715;28;102009;-54
2022/07/23 01:41:41;;;;;;;2.03;1.83;;;;;;;21.79;64.23;101114.44;4977810;28;102456;-55
2022/07/23 01:44:08;;;;;;;4.18;1.60;;;;;;;21.79;64.35;101108.91;4975979;28;104117;-54
2022/07/23 01:46:35;;;;;;;2.80;2.13;;;;;;;21.79;64.20;101119.97;4975373;28;102094;-54
2022/07/23 01:49:02;;;;;;;1.83;1.70;;;;;;;21.80;64.28;101116.06;4974959;28;102152;-54
2022/07/23 01:51:28;;;;;;;3.65;1.60;;;;;;;21.78;64.33;101115.59;4976185;28;102231;-54
2022/07/23 01:53:55;;;;;;;3.15;1.65;;;;;;;21.79;64.30;101114.44;4976047;28;103902;-54
2022/07/23 01:56:22;;;;;;;3.45;1.50;;;;;;;21.80;64.31;101120.78;4975945;28;102217;-54
2022/07/23 01:58:50;;;;;;;2.00;1.80;;;;;;;21.79;64.28;101122.75;4975422;28;102132;-54
2022/07/23 02:01:16;;;;;;;2.33;1.85;;;;;;;21.78;64.46;101123.91;4973513;28;102632;-54
2022/07/23 02:03:43;;;;;;;1.90;1.70;;;;;;;21.79;63.97;101124.72;4976016;28;103962;-54
2022/07/23 02:06:09;;;;;;;1.75;1.63;;;;;;;21.79;64.35;101119.97;4975279;28;102451;-54
2022/07/23 02:08:40;;;;;;;1.67;1.50;;;;;;;21.78;64.32;101118.38;4976216;28;102198;-54
2022/07/23 02:11:07;;;;;;;3.50;1.73;;;;;;;21.79;64.23;101119.19;4972867;28;102228;-54
2022/07/23 02:13:34;;;;;;;2.38;1.60;;;;;;;21.78;64.02;101118.38;4965717;28;103743;-54
2022/07/23 02:16:02;;;;;;;1.75;1.65;;;;;;;21.78;64.17;101123.06;4979568;28;102239;-55
2022/07/23 02:18:29;;;;;;;2.42;1.83;;;;;;;21.77;64.23;101125.03;4979231;28;102257;-55
2022/07/23 02:20:56;;;;;;;1.85;1.63;;;;;;;21.76;64.25;101120.66;4980147;28;102806;-55
2022/07/23 02:23:22;;;;;;;1.85;1.50;;;;;;;21.76;64.15;101126.19;4978803;28;103972;-54
2022/07/23 02:25:48;;;;;;;1.75;1.65;;;;;;;21.77;64.19;101127.81;4980064;28;102222;-55
2022/07/23 02:28:16;;;;;;;1.40;1.30;;;;;;;21.77;64.08;101127.81;4979685;28;102306;-55
2022/07/23 02:30:42;;;;;;;3.15;1.52;;;;;;;21.77;63.87;101122.25;4978841;28;102592;-55
2022/07/23 02:33:10;;;;;;;3.00;1.60;;;;;;;21.77;63.82;101127.81;4978740;28;103825;-55
2022/07/23 02:35:37;;;;;;;;;;;;;;;21.77;64.32;101127.81;4978631;28;102442;-54
2022/07/23 02:38:05;;;;;;;3.38;1.65;;;;;;;21.79;64.10;101133.84;4979340;28;102150;-54
2022/07/23 02:40:31;;;;;;;1.88;1.50;;;;;;;21.78;64.18;101128.63;4979970;28;102252;-54
2022/07/23 02:42:58;;;;;;;3.53;1.80;;;;;;;21.77;64.13;101133.34;4978634;28;104111;-54
2022/07/23 02:45:25;;;;;;;1.63;1.52;;;;;;;21.78;64.13;101135.00;4979418;28;101987;-54
2022/07/23 02:47:52;;;;;;;1.70;1.60;;;;;;;21.77;64.08;101129.78;4979370;28;102046;-54
2022/07/23 02:50:20;;;;;;;3.28;1.88;;;;;;;21.76;64.01;101131.72;4979163;28;102596;-54
2022/07/23 02:52:46;;;;;;;3.03;2.00;;;;;;;21.76;63.92;101133.69;4977780;28;104201;-55
2022/07/23 02:55:14;;;;;;;2.47;2.10;;;;;;;21.76;63.88;101142.81;4971293;28;102094;-54
2022/07/23 02:57:41;;;;;;;2.13;1.90;;;;;;;21.77;63.83;101140.84;4977164;28;102517;-54
2022/07/23 03:00:09;;;;;;;3.10;1.88;;;;;;;21.76;64.13;101142.81;4979136;28;102688;-58
2022/07/23 03:02:37;;;;;;;1.75;1.60;;;;;;;21.77;64.31;101144.44;4977342;28;103914;-54
2022/07/23 03:05:05;;;;;;;3.38;2.03;;;;;;;21.76;64.16;101150.31;4977974;28;102413;-54
2022/07/23 03:07:32;;;;;;;4.97;1.92;;;;;;;21.76;63.97;101161.41;4978899;28;102418;-54
2022/07/23 03:09:59;;;;;;;2.30;2.10;;;;;;;21.77;63.82;101166.59;4979933;28;102149;-54
2022/07/23 03:12:26;;;;;;;4.15;1.98;;;;;;;21.78;63.54;101167.41;4977916;28;104038;-55
2022/07/23 03:14:52;;;;;;;3.30;2.17;;;;;;;21.78;63.91;101162.69;4978768;28;102220;-54
2022/07/23 03:17:19;;;;;;;2.28;1.88;;;;;;;21.77;64.18;101160.25;4977512;28;102088;-54
2022/07/23 03:19:45;;;;;;;2.22;1.98;;;;;;;21.77;64.33;101165.78;4979984;28;102181;-55
2022/07/23 03:22:13;;;;;;;2.10;1.73;;;;;;;21.76;64.34;101164.97;4977220;28;104063;-55
2022/07/23 03:24:56;;;;;;;2.63;1.85;;;;;;;21.77;64.49;101160.25;4978569;28;102133;-54
2022/07/23 03:27:25;;;;;;;2.13;1.88;;;;;;;21.77;64.57;101166.59;4978356;28;101933;-55
2022/07/23 03:29:52;;;;;;;;;;;;;;;21.78;64.87;101173.78;4979199;28;102208;-54
2022/07/23 03:32:19;;;;;;;2.05;1.80;;;;;;;21.79;64.78;101169.84;4976829;28;104113;-54
2022/07/23 03:34:45;;;;;;;2.42;1.90;;;;;;;21.79;64.81;101180.94;4979206;28;102387;-54
2022/07/23 03:37:12;;;;;;;2.58;2.13;;;;;;;21.79;65.10;101180.13;4977543;28;102192;-54
2022/07/23 03:39:40;;;;;;;2.25;1.95;;;;;;;21.79;65.00;101182.91;4979356;28;102609;-54
2022/07/23 03:42:07;;;;;;;2.97;1.90;;;;;;;21.79;65.27;101177.34;4975861;28;108119;-55
2022/07/23 03:44:36;;;;;;;1.98;1.80;;;;;;;21.77;65.38;101166.59;4978970;28;101801;-54
2022/07/23 03:47:05;;;;;;;2.22;1.58;;;;;;;21.77;65.55;101172.13;4977390;28;102256;-54
2022/07/23 03:49:33;;;;;;;;;;;;;;;21.77;65.77;101180.44;4979954;28;102525;-54
2022/07/23 03:52:00;;;;;;;1.48;1.38;;;;;;;21.79;65.70;101171.81;4977006;28;103804;-54
2022/07/23 03:54:27;;;;;;;2.05;1.70;;;;;;;21.78;65.98;101172.94;4978153;28;102091;-55
2022/07/23 03:56:55;;;;;;;3.13;1.95;;;;;;;21.79;65.62;101180.94;4977976;28;102427;-54
2022/07/23 03:59:22;;;;;;;1.60;1.47;;;;;;;21.79;65.94;101175.41;4978872;28;102129;-54
2022/07/23 04:01:48;;;;;;;2.30;2.00;;;;;;;21.81;65.87;101175.03;4976243;28;103904;-54
2022/07/23 04:04:15;;;;;;;3.25;1.50;;;;;;;21.80;65.74;101179.78;4977109;28;102023;-54
2022/07/23 04:06:41;;;;;;;2.60;1.70;;;;;;;21.81;65.95;101178.63;4976993;28;102427;-54
2022/07/23 04:09:10;;;;;;;3.65;1.90;;;;;;;21.81;65.96;101178.63;4979340;28;102264;-54
2022/07/23 04:11:36;;;;;;;2.70;1.67;;;;;;;21.82;66.04;101185.00;4977460;28;104454;-54
2022/07/23 04:14:07;;;;;;;1.80;1.70;;;;;;;21.83;66.12;101172.75;4977246;28;102018;-54
2022/07/23 04:16:34;;;;;;;1.90;1.67;;;;;;;21.83;65.89;101173.56;4976764;28;102271;-55
2022/07/23 04:19:00;;;;;;;2.25;2.00;;;;;;;21.84;66.25;101180.72;4979054;28;102110;-54
2022/07/23 04:21:27;;;;;;;2.28;1.70;;;;;;;21.84;66.13;101174.38;4976235;28;104008;-55
2022/07/23 04:23:53;;;;;;;2.03;1.60;;;;;;;21.84;66.14;101177.94;4977069;28;102086;-54
2022/07/23 04:26:21;;;;;;;1.88;1.60;;;;;;;21.86;66.28;101185.13;4977379;28;102180;-54
2022/07/23 04:28:48;;;;;;;2.22;1.90;;;;;;;21.86;66.10;101185.13;4978511;28;102364;-54
2022/07/23 04:31:16;;;;;;;2.08;1.90;;;;;;;21.87;66.12;101173.69;4975684;28;103964;-54
2022/07/23 04:33:42;;;;;;;2.13;1.70;;;;;;;21.87;65.95;101187.56;4975219;28;102238;-54
2022/07/23 04:36:09;;;;;;;3.92;1.65;;;;;;;21.87;66.26;101186.75;4976554;28;101979;-54
2022/07/23 04:38:35;;;;;;;1.73;1.63;;;;;;;21.86;66.17;101182.38;4978076;28;102398;-54
2022/07/23 04:41:02;;;;;;;2.20;2.00;;;;;;;21.86;65.90;101180.41;4976314;28;104171;-54
2022/07/23 04:43:29;;;;;;;3.97;1.90;;;;;;;21.88;66.20;101182.81;4976354;28;102129;-55
2022/07/23 04:45:56;;;;;;;2.10;1.92;;;;;;;21.88;66.36;101185.59;4976583;28;102063;-55
2022/07/23 04:48:23;;;;;;;2.08;1.60;;;;;;;21.88;66.30;101178.09;4970768;28;102145;-54
2022/07/23 04:50:50;;;;;;;2.00;1.77;;;;;;;21.88;66.53;101178.09;4974854;28;103825;-54
2022/07/23 04:53:18;;;;;;;3.95;2.47;;;;;;;21.89;66.30;101181.66;4973537;28;102389;-54
2022/07/23 04:55:44;;;;;;;1.95;1.75;;;;;;;21.89;66.40;101179.72;4970731;28;102299;-55
2022/07/23 04:58:11;;;;;;;2.03;1.88;;;;;;;21.90;66.22;101181.34;4976106;28;102171;-55
2022/07/23 05:00:37;;;;;;;2.72;1.65;;;;;;;21.93;66.30;101185.41;4974667;28;103906;-54
2022/07/23 05:03:04;;;;;;;2.00;1.80;;;;;;;21.94;66.38;101181.50;4977163;28;102154;-54
2022/07/23 05:05:32;;;;;;;2.08;1.92;;;;;;;21.95;66.47;101188.66;4976098;28;102634;-55
2022/07/23 05:07:58;;;;;;;2.50;1.80;;;;;;;21.96;66.35;101184.72;4964243;28;102477;-54
2022/07/23 05:10:25;;;;;;;2.25;1.90;;;;;;;21.97;66.43;101192.72;4972780;28;103927;-54
2022/07/23 05:12:51;;;;;;;2.20;1.90;;;;;;;21.98;66.51;101187.97;4976321;28;102189;-54
2022/07/23 05:15:18;;;;;;;2.00;1.85;;;;;;;22.00;66.48;101180.16;4975875;28;102017;-54
2022/07/23 05:17:45;;;;;;;1.80;1.70;;;;;;;22.00;66.31;101185.69;4973903;28;102275;-54
2022/07/23 05:20:13;;;;;;;3.10;1.98;;;;;;;22.03;66.18;101185.00;4976606;28;103663;-54
2022/07/23 05:22:41;;;;;;;2.20;2.00;;;;;;;22.02;66.36;101188.91;4975974;28;103570;-54
2022/07/23 05:25:09;;;;;;;1.98;1.60;;;;;;;22.05;66.32;101191.81;4975771;28;102030;-54
2022/07/23 05:27:35;;;;;;;3.25;2.35;;;;;;;22.06;66.30;101189.88;4978142;28;102525;-54
2022/07/23 05:30:03;;;;;;;2.28;2.08;;;;;;;22.08;66.20;101187.56;4974928;28;103971;-54
2022/07/23 05:32:31;;;;;;;;;;;;;;;22.11;66.16;101186.91;4976776;28;102521;-54
2022/07/23 05:34:58;;;;;;;2.17;1.98;;;;;;;22.12;66.28;101182.97;4976114;28;102368;-55
2022/07/23 05:37:24;;;;;;;2.60;2.00;;;;;;;22.14;65.99;101175.16;4976259;28;102836;-54
2022/07/23 05:39:53;;;;;;;2.50;2.30;;;;;;;22.16;66.14;101192.25;4975673;28;103926;-54
2022/07/23 05:42:19;;;;;;;2.50;2.25;;;;;;;22.19;66.16;101196.31;4974909;28;102160;-54
2022/07/23 05:44:46;;;;;;;2.40;2.20;;;;;;;22.20;65.96;101195.97;4968648;28;102018;-54
2022/07/23 05:47:12;;;;;;;2.30;2.08;;;;;;;22.22;66.11;101188.16;4976113;28;102192;-54
2022/07/23 05:49:39;;;;;;;2.30;2.10;;;;;;;22.23;66.24;101195.31;4977026;28;103947;-54
2022/07/23 05:52:06;;;;;;;2.45;2.22;;;;;;;22.26;65.92;101189.09;4980444;28;101910;-54
2022/07/23 05:54:34;;;;;;;2.53;2.17;;;;;;;22.26;66.11;101199.38;4973509;28;102277;-54
2022/07/23 05:57:02;;;;;;;2.97;2.30;;;;;;;22.28;66.01;101200.63;4977115;28;102706;-54
2022/07/23 05:59:29;;;;;;;;;;;;;;;22.29;65.77;101198.69;4978948;28;103914;-55
2022/07/23 06:01:56;;;;;;;2.72;2.50;;;;;;;22.31;66.04;101196.38;4979761;28;102185;-55
2022/07/23 06:04:22;;;;;;;2.55;2.22;;;;;;;22.32;65.88;101195.22;4978750;28;102326;-55
2022/07/23 06:06:49;;;;;;;2.53;2.33;;;;;;;22.35;65.56;101202.06;4979413;28;102269;-55
2022/07/23 06:09:15;;;;;;;2.67;2.35;;;;;;;22.36;65.44;101200.91;4978430;28;103879;-55
2022/07/23 06:11:42;;;;;;;2.67;2.13;;;;;;;22.37;65.52;101199.78;4976138;28;102205;-55
2022/07/23 06:14:14;;;;;;;3.97;2.30;;;;;;;22.38;65.43;101191.09;4978186;28;102370;-55
2022/07/23 06:16:40;;;;;;;3.37;2.47;;;;;;;22.39;65.37;101197.44;4980496;28;102102;-54
2022/07/23 06:19:07;;;;;;;2.53;2.33;;;;;;;22.40;64.69;101199.91;4977681;28;103769;-54
2022/07/23 06:21:35;;;;;;;2.88;2.58;;;;;;;22.39;65.62;101191.91;4978690;28;101936;-55
2022/07/23 06:24:01;;;;;;;2.25;2.05;;;;;;;22.42;65.14;101192.03;4975489;28;102185;-55
2022/07/23 06:26:28;;;;;;;4.28;2.20;;;;;;;22.41;65.58;101182.09;4972095;28;102175;-54
2022/07/23 06:28:55;;;;;;;2.83;2.15;;;;;;;22.43;65.03;101190.06;4979255;28;103710;-54
2022/07/23 06:31:23;;;;;;;4.18;2.30;;;;;;;22.44;65.29;101184.19;4971771;28;101971;-54
2022/07/23 06:33:50;;;;;;;2.40;2.20;;;;;;;22.45;65.35;101190.56;4979272;28;101920;-54
2022/07/23 06:36:16;;;;;;;2.47;2.00;;;;;;;22.45;65.11;101176.69;4977237;28;102842;-54
2022/07/23 06:38:43;;;;;;;2.55;2.30;;;;;;;22.47;64.12;101185.50;4959517;28;104030;-55
2022/07/23 06:41:09;;;;;;;2.85;2.40;;;;;;;22.48;64.39;101182.38;4976924;28;102383;-54
2022/07/23 06:43:36;;;;;;;3.67;1.95;;;;;;;22.47;64.97;101182.72;4978691;28;102408;-55
2022/07/23 06:46:02;;;;;;;2.33;2.10;;;;;;;22.49;64.39;101166.53;4980293;28;102440;-54
2022/07/23 06:48:30;;;;;;;2.45;2.25;;;;;;;22.51;63.96;101172.56;4973524;28;103994;-54
2022/07/23 06:50:57;;;;;;;2.60;2.38;;;;;;;22.51;63.94;101167.81;4977661;28;102331;-54
2022/07/23 06:53:23;;;;;;;2.40;2.20;;;;;;;22.52;63.96;101165.84;4977561;28;102088;-54
2022/07/23 06:55:50;;;;;;;2.33;2.13;;;;;;;22.52;64.37;101168.63;4975211;28;102306;-54
2022/07/23 06:58:18;;;;;;;4.60;2.22;;;;;;;22.53;64.34;101170.25;4978237;28;103985;-54
2022/07/23 07:00:44;;;;;;;2.50;2.28;;;;;;;22.53;63.88;101170.25;4978728;28;102168;-55
2022/07/23 07:03:11;;;;;;;3.05;2.17;;;;;;;22.53;63.64;101167.47;4978289;28;102527;-54
2022/07/23 07:05:42;;;;;;;2.17;2.00;;;;;;;22.53;63.93;101165.50;4980021;28;102294;-54
2022/07/23 07:08:10;;;;;;;2.28;2.08;;;;;;;22.54;63.42;101160.78;4978408;28;104074;-55
2022/07/23 07:10:36;;;;;;;2.40;2.20;;;;;;;22.57;63.15;101167.59;4979434;28;102169;-54
2022/07/23 07:13:03;;;;;;;2.40;2.10;;;;;;;22.55;64.44;101162.41;4975041;28;102644;-55
2022/07/23 07:15:29;;;;;;;2.30;2.10;;;;;;;22.54;64.63;101160.78;4979287;28;102134;-54
2022/07/23 07:17:56;;;;;;;3.95;2.38;;;;;;;22.54;63.66;101164.38;4976441;28;104059;-54
2022/07/23 07:20:25;;;;;;;2.05;1.92;;;;;;;22.54;64.01;101160.78;4978375;28;102670;-55
2022/07/23 07:22:53;;;;;;;2.58;2.25;;;;;;;22.57;63.72;101165.63;4976544;28;102409;-55
2022/07/23 07:25:19;;;;;;;2.40;2.20;;;;;;;22.57;63.53;101165.63;4977298;28;102734;-54
2022/07/23 07:27:46;;;;;;;3.35;2.40;;;;;;;22.56;64.22;101161.25;4973687;28;104071;-54
2022/07/23 07:30:13;;;;;;;2.40;2.20;;;;;;;22.59;64.75;101163.34;4978142;28;102684;-55
2022/07/23 07:32:40;;;;;;;2.33;2.13;;;;;;;22.56;64.28;101164.00;4975951;28;102330;-54
2022/07/23 07:35:10;;;;;;;2.35;2.10;;;;;;;22.58;63.55;101167.25;4977483;28;103955;-54
2022/07/23 07:37:36;;;;;;;2.25;1.98;;;;;;;22.60;63.91;101173.25;4976292;28;104035;-55
2022/07/23 07:40:05;;;;;;;2.20;1.90;;;;;;;22.61;63.41;101168.53;4976997;28;101872;-54
2022/07/23 07:42:32;;;;;;;2.20;2.05;;;;;;;22.62;63.12;101159.88;4974657;28;102330;-54
2022/07/23 07:44:59;;;;;;;2.60;2.40;;;;;;;22.63;63.09;101163.47;4971952;28;102174;-54
2022/07/23 07:47:25;;;;;;;3.75;2.03;;;;;;;22.88;60.92;101164.34;4969686;28;104084;-59
2022/07/23 07:49:52;;;;;;;7.47;2.22;;;;;;;23.46;55.34;101159.53;4976578;28;102074;-54
2022/07/23 07:52:19;;;;;;;9.10;2.13;;;;;;;23.16;57.13;101159.78;4970378;28;102404;-54
2022/07/23 07:54:45;;;;;;;11.05;2.72;;;;;;;22.92;59.65;101160.53;4975466;28;102269;-54
2022/07/23 07:57:13;;;;;;;3.58;2.30;;;;;;;22.83;60.15;101165.38;4977244;28;104014;-54
2022/07/23 07:59:40;;;;;;;5.90;2.47;;;;;;;22.78;60.59;101162.78;4965257;28;102292;-54
2022/07/23 08:02:07;;;;;;;5.80;2.67;;;;;;;22.74;60.99;101154.34;4973519;28;102170;-54
2022/07/23 08:04:36;;;;;;;6.75;2.45;;;;;;;22.70;63.74;101153.41;4977315;28;102145;-54
2022/07/23 08:07:03;;;;;;;4.90;2.38;;;;;;;22.66;64.73;101148.91;4977618;28;103926;-54
2022/07/23 08:26:40;;;;;;;3.15;2.13;;;;;;;22.58;65.18;101150.63;5963912;22;103631;-96
2022/07/23 08:29:09;;;;;;;2.17;2.08;;;;;;;22.55;65.56;101145.75;4935463;28;103919;-54
2022/07/23 08:31:40;;;;;;;3.20;2.53;;;;;;;22.55;65.46;101145.75;4918477;28;102029;-54
2022/07/23 08:34:07;;;;;;;2.30;2.10;;;;;;;22.54;65.60;101146.91;4923026;28;102105;-54
2022/07/23 08:36:34;;;;;;;2.30;2.10;;;;;;;22.55;65.33;101141.00;4939929;28;102349;-54
2022/07/23 08:39:03;;;;;;;2.45;2.08;;;;;;;22.56;65.35;101150.16;4939806;28;103916;-54
2022/07/23 08:41:29;;;;;;;3.15;2.20;;;;;;;22.54;65.60;101149.69;4928713;28;104035;-54
2022/07/23 08:43:57;;;;;;;2.40;2.20;;;;;;;22.52;65.45;101154.75;4929841;28;102332;-54
2022/07/23 08:46:29;;;;;;;2.97;2.38;;;;;;;22.52;65.30;101147.25;4918367;28;102151;-54
2022/07/23 08:48:56;;;;;;;2.67;2.40;;;;;;;22.51;65.36;101150.38;4950223;28;103915;-54
2022/07/23 08:51:26;;;;;;;2.72;2.53;;;;;;;22.51;65.34;101139.28;4940580;28;102024;-54
2022/07/23 08:53:56;;;;;;;3.83;2.10;;;;;;;22.51;65.31;101147.59;4938426;28;102327;-54
2022/07/23 08:56:22;;;;;;;2.80;2.60;;;;;;;22.49;65.81;101141.56;4935515;28;102593;-54
2022/07/23 08:58:49;;;;;;;2.40;2.15;;;;;;;22.49;65.29;101138.78;4947007;28;103912;-53
2022/07/23 09:01:15;;;;;;;3.53;2.40;;;;;;;22.50;65.14;101144.00;4937829;28;102652;-54
2022/07/23 09:03:44;;;;;;;2.55;2.35;;;;;;;22.50;65.24;101141.25;4927721;28;101957;-54
2022/07/23 09:06:11;;;;;;;2.42;2.22;;;;;;;22.51;65.38;101139.28;4923270;28;102228;-55
2022/07/23 09:08:39;;;;;;;2.70;2.50;;;;;;;22.49;65.03;101147.13;4944842;28;104011;-54
2022/07/23 09:11:11;;;;;;;2.95;2.60;;;;;;;22.47;65.57;101132.78;4918584;28;102160;-54
2022/07/23 09:13:42;;;;;;;3.10;2.53;;;;;;;22.46;65.07;101126.41;4932794;28;102034;-54
2022/07/23 09:16:13;;;;;;;2.63;2.42;;;;;;;22.48;65.12;101128.88;4932620;28;102449;-54
2022/07/23 09:18:43;;;;;;;2.30;2.10;;;;;;;22.47;65.28;101135.56;4949708;28;103933;-54
2022/07/23 09:21:21;;;;;;;5.20;2.50;;;;;;;22.47;65.01;101136.38;4948633;28;102338;-54
2022/07/23 09:23:53;;;;;;;3.20;2.70;;;;;;;22.47;65.31;101127.25;4940763;28;102377;-54
2022/07/23 09:26:25;;;;;;;2.60;2.40;;;;;;;22.47;65.29;101132.78;4952932;28;102272;-54
2022/07/23 09:28:55;;;;;;;2.63;2.42;;;;;;;22.48;65.25;101131.63;4963097;28;103706;-54
2022/07/23 09:31:23;;;;;;;2.90;2.58;;;;;;;22.47;65.25;101124.47;4952024;28;102814;-54
2022/07/23 09:33:50;;;;;;;2.33;2.13;;;;;;;22.45;65.44;101113.72;4954628;28;103103;-54
2022/07/23 09:36:28;;;;;;;2.40;2.08;;;;;;;22.46;65.40;101120.06;4957438;28;102326;-53
2022/07/23 09:38:55;;;;;;;3.95;2.20;;;;;;;22.47;65.20;101116.16;4955722;28;104056;-54
2022/07/23 09:41:23;;;;;;;2.63;2.28;;;;;;;22.50;64.86;101121.84;4944947;28;102333;-53
2022/07/23 09:43:55;;;;;;;2.97;2.50;;;;;;;22.52;64.94;101107.59;4941475;28;102343;-54
2022/07/23 09:46:24;;;;;;;3.70;2.33;;;;;;;22.50;65.15;101113.50;4938097;28;102125;-54
2022/07/23 09:48:52;;;;;;;3.28;2.28;;;;;;;22.46;65.51;101104.22;4936502;28;103879;-54
2022/07/23 09:51:37;;;;;;;3.67;2.45;;;;;;;22.46;65.37;101100.66;4961521;28;102537;-54
2022/07/23 09:54:05;;;;;;;2.50;2.30;;;;;;;22.44;65.17;101100.19;4947208;28;102166;-54
2022/07/23 09:56:35;;;;;;;2.80;2.60;;;;;;;22.46;64.96;101097.88;4947778;28;102980;-54
2022/07/23 09:59:07;;;;;;;2.50;2.30;;;;;;;22.46;65.50;101092.31;4964732;28;104106;-54
2022/07/23 10:01:34;;;;;;;3.38;2.47;;;;;;;22.44;65.56;101083.56;4950957;28;102429;-54
2022/07/23 10:04:01;;;;;;;3.88;2.20;;;;;;;22.48;65.32;101090.03;4951469;28;102603;-54
2022/07/23 10:06:29;;;;;;;3.23;2.57;;;;;;;22.46;65.36;101081.22;4944082;28;102155;-54
2022/07/23 10:08:59;;;;;;;2.75;2.55;;;;;;;22.44;65.32;101089.09;4944442;28;103912;-54
2022/07/23 10:11:31;;;;;;;2.97;2.70;;;;;;;22.42;65.07;101083.88;4954043;28;102280;-54
2022/07/23 10:13:59;;;;;;;4.90;2.80;;;;;;;22.44;65.21;101078.00;4956288;28;102516;-54
2022/07/23 10:16:27;;;;;;;4.05;2.67;;;;;;;22.41;65.36;101073.16;4974606;28;102564;-54
2022/07/23 10:18:55;;;;;;;2.90;2.70;;;;;;;22.41;65.36;101073.16;4966444;28;104047;-54
2022/07/23 10:21:27;;;;;;;3.78;2.80;;;;;;;22.41;65.75;101078.69;4946182;28;102230;-54
2022/07/23 10:24:18;;;;;;;3.15;2.85;;;;;;;22.39;65.55;101084.56;4946192;28;102417;-54
2022/07/23 10:26:58;;;;;;;2.97;2.78;;;;;;;22.39;65.41;101076.25;4951599;28;102594;-54
2022/07/23 10:29:42;;;;;;;3.03;2.78;;;;;;;22.39;65.45;101070.69;4953275;28;103978;-54
2022/07/23 10:32:22;;;;;;;2.72;2.30;;;;;;;22.39;65.63;101069.88;4942864;28;103033;-54
2022/07/23 10:34:55;;;;;;;2.53;2.20;;;;;;;22.41;65.45;101073.16;4956060;28;102329;-53
2022/07/23 10:37:27;;;;;;;2.85;2.60;;;;;;;22.41;65.72;101062.84;4961714;28;104775;-54
2022/07/23 10:40:08;;;;;;;5.30;2.38;;;;;;;22.39;65.63;101056.03;4954374;28;103893;-53
2022/07/23 10:42:38;;;;;;;3.15;2.60;;;;;;;22.39;65.50;101064.34;4963117;28;102424;-54
2022/07/23 10:45:19;;;;;;;;;;;;;;;22.40;65.76;101054.91;4965778;28;102069;-54
2022/07/23 10:47:46;;;;;;;2.83;2.33;;;;;;;22.39;65.67;101064.34;4949396;28;102176;-54
2022/07/23 10:50:21;;;;;;;2.53;2.33;;;;;;;22.39;65.42;101065.16;4945075;28;104079;-54
2022/07/23 10:53:13;;;;;;;2.60;2.40;;;;;;;22.38;65.70;101057.19;4950811;28;102056;-54
2022/07/23 10:55:44;;;;;;;2.28;2.17;;;;;;;22.37;65.56;101055.56;4947801;28;102355;-54
2022/07/23 10:58:18;;;;;;;3.05;2.85;;;;;;;22.36;65.44;101062.25;4956601;28;102228;-54
2022/07/23 11:00:45;;;;;;;2.80;2.60;;;;;;;22.35;65.45;101055.09;4939015;28;103973;-54
2022/07/23 11:03:31;;;;;;;2.40;2.20;;;;;;;22.35;65.91;101052.31;4942500;28;102476;-54
2022/07/23 11:05:59;;;;;;;2.90;2.17;;;;;;;22.35;65.48;101057.88;4948983;28;102205;-54
2022/07/23 11:08:32;;;;;;;2.17;1.98;;;;;;;22.35;65.74;101055.09;4940019;28;102593;-54
2022/07/23 11:11:14;;;;;;;2.65;2.45;;;;;;;22.34;65.12;101045.16;4939054;28;104036;-54
2022/07/23 11:13:49;;;;;;;2.55;2.10;;;;;;;22.35;64.97;101044.00;4938803;28;102294;-54
2022/07/23 11:16:25;;;;;;;2.60;2.40;;;;;;;22.36;65.06;101038.13;4955403;28;102330;-54
2022/07/23 11:19:07;;;;;;;2.28;1.98;;;;;;;22.36;65.88;101042.84;4945528;28;102194;-54
2022/07/23 11:21:48;;;;;;;2.22;2.08;;;;;;;22.34;65.54;101048.75;4952930;28;103941;-54
2022/07/23 11:24:22;;;;;;;2.00;1.90;;;;;;;22.34;66.04;101043.19;4946508;28;102220;-54
2022/07/23 11:26:57;;;;;;;2.70;2.20;;;;;;;22.36;65.64;101043.69;4946321;28;102010;-54
2022/07/23 11:29:45;;;;;;;2.25;2.10;;;;;;;22.35;65.42;101035.69;4931288;28;102386;-54
2022/07/23 11:32:30;;;;;;;2.58;2.38;;;;;;;22.33;65.84;101032.47;4954130;28;103931;-54
2022/07/23 11:34:56;;;;;;;2.53;2.20;;;;;;;22.32;65.84;101048.25;4951995;28;102806;-54
2022/07/23 11:37:34;;;;;;;2.30;2.10;;;;;;;22.30;65.74;101039.50;4957834;28;102451;-54
2022/07/23 11:40:03;;;;;;;2.10;2.00;;;;;;;22.33;65.78;101038.00;4939647;28;102190;-54
2022/07/23 11:42:30;;;;;;;2.22;2.03;;;;;;;22.31;65.67;101035.56;4938985;28;103707;-54